createdAt,value
2018-11-12T00:01:53.839Z,25.80
2018-11-12T00:04:23.638Z,32.30
2018-11-12T00:06:53.479Z,34.13
2018-11-12T00:09:24.302Z,48.93
2018-11-12T00:11:53.895Z,27.13
2018-11-12T00:14:35.749Z,36.03
2018-11-12T00:17:17.199Z,71.10
2018-11-12T00:19:47.083Z,29.33
2018-11-12T00:22:25.930Z,34.77
2018-11-12T00:27:55.900Z,29.97
2018-11-12T00:30:25.646Z,27.37
2018-11-12T00:33:01.714Z,35.80
2018-11-12T00:35:31.474Z,45.80
2018-11-12T00:38:08.760Z,40.40
2018-11-12T00:40:39.897Z,39.83
2018-11-12T00:43:19.250Z,51.57
2018-11-12T00:45:49.066Z,37.37
2018-11-12T00:48:18.937Z,56.93
2018-11-12T00:50:50.875Z,45.47
2018-11-12T00:53:21.080Z,39.90
2018-11-12T00:55:51.215Z,57.93
2018-11-12T00:58:29.789Z,54.37
2018-11-12T01:00:59.526Z,38.43
2018-11-12T01:03:29.214Z,34.43
2018-11-12T01:06:09.825Z,43.77
2018-11-12T01:08:46.902Z,34.00
2018-11-12T01:11:16.823Z,34.20
2018-11-12T01:13:46.561Z,27.83
2018-11-12T01:16:16.425Z,28.13
2018-11-12T01:18:46.175Z,26.37
2018-11-12T01:21:15.971Z,21.63
2018-11-12T01:23:54.504Z,28.60
2018-11-12T01:26:28.927Z,31.53
2018-11-12T01:29:05.871Z,27.23
2018-11-12T01:31:43.096Z,22.97
2018-11-12T01:34:14.531Z,29.90
2018-11-12T01:36:44.293Z,30.53
2018-11-12T01:39:14.207Z,27.63
2018-11-12T01:42:01.440Z,20.50
2018-11-12T01:44:38.033Z,23.90
2018-11-12T01:47:08.092Z,25.77
2018-11-12T01:49:37.747Z,21.70
2018-11-12T01:52:07.926Z,26.30
2018-11-12T01:54:37.743Z,26.73
2018-11-12T01:57:07.383Z,27.03
2018-11-12T01:59:37.111Z,29.93
2018-11-12T02:02:08.043Z,30.20
2018-11-12T02:04:37.754Z,34.60
2018-11-12T02:07:07.887Z,25.50
2018-11-12T02:09:37.574Z,31.13
2018-11-12T02:12:07.295Z,32.33
2018-11-12T02:14:37.121Z,25.63
2018-11-12T02:17:07.191Z,18.53
2018-11-12T02:19:36.908Z,38.43
2018-11-12T02:22:07.058Z,25.90
2018-11-12T02:24:41.892Z,26.67
2018-11-12T02:27:11.848Z,28.20
2018-11-12T02:29:41.599Z,42.47
2018-11-12T02:32:11.326Z,39.70
2018-11-12T02:34:41.127Z,38.37
2018-11-12T02:37:10.887Z,33.37
2018-11-12T02:39:40.614Z,34.30
2018-11-12T02:42:10.337Z,30.53
2018-11-12T02:44:40.085Z,45.60
2018-11-12T02:47:09.791Z,40.10
2018-11-12T02:49:39.691Z,33.20
2018-11-12T02:52:09.531Z,44.60
2018-11-12T02:54:39.256Z,42.80
2018-11-12T02:57:09.118Z,55.57
2018-11-12T02:59:38.815Z,48.63
2018-11-12T03:02:08.709Z,84.23
2018-11-12T03:04:38.439Z,58.40
2018-11-12T03:07:08.211Z,31.37
2018-11-12T03:09:37.817Z,40.10
2018-11-12T03:12:07.535Z,45.27
2018-11-12T03:14:37.363Z,29.47
2018-11-12T03:17:08.010Z,26.97
2018-11-12T03:19:39.720Z,39.97
2018-11-12T03:22:09.491Z,39.93
2018-11-12T03:24:39.174Z,81.53
2018-11-12T03:27:08.955Z,51.17
2018-11-12T03:29:38.741Z,41.00
2018-11-12T03:32:08.443Z,41.77
2018-11-12T03:34:38.163Z,64.37
2018-11-12T03:37:08.566Z,41.87
2018-11-12T03:39:38.321Z,58.63
2018-11-12T03:42:08.006Z,57.37
2018-11-12T03:44:37.771Z,46.07
2018-11-12T03:47:09.667Z,70.17
2018-11-12T03:49:39.278Z,87.87
2018-11-12T03:52:09.042Z,86.87
2018-11-12T03:54:38.734Z,76.10
2018-11-12T03:57:08.347Z,97.27
2018-11-12T03:59:38.008Z,97.57
2018-11-12T04:02:07.918Z,80.77
2018-11-12T04:04:37.795Z,48.47
2018-11-12T04:07:07.598Z,123.97
2018-11-12T04:09:37.367Z,60.40
2018-11-12T04:12:08.168Z,33.33
2018-11-12T04:14:38.443Z,51.60
2018-11-12T04:17:08.198Z,67.93
2018-11-12T04:19:43.759Z,61.17
2018-11-12T04:22:13.348Z,89.27
2018-11-12T04:24:43.055Z,87.97
2018-11-12T04:27:12.723Z,55.00
2018-11-12T04:29:42.417Z,63.90
2018-11-12T04:32:12.159Z,80.30
2018-11-12T04:34:41.886Z,42.63
2018-11-12T04:37:12.211Z,58.77
2018-11-12T04:39:42.667Z,58.13
2018-11-12T04:42:12.311Z,65.83
2018-11-12T04:44:42.144Z,50.63
2018-11-12T04:47:11.854Z,73.67
2018-11-12T04:49:41.499Z,31.10
2018-11-12T04:52:11.150Z,29.90
2018-11-12T04:54:40.883Z,33.33
2018-11-12T04:57:10.571Z,30.80
2018-11-12T04:59:40.283Z,43.23
2018-11-12T05:02:10.003Z,37.07
2018-11-12T05:04:39.702Z,48.13
2018-11-12T05:07:09.319Z,31.03
2018-11-12T05:09:39.094Z,34.50
2018-11-12T05:12:08.862Z,39.40
2018-11-12T05:14:38.573Z,48.97
2018-11-12T05:17:09.359Z,53.83
2018-11-12T05:19:39.127Z,59.77
2018-11-12T05:22:08.827Z,32.20
2018-11-12T05:24:38.578Z,39.40
2018-11-12T05:27:08.285Z,63.37
2018-11-12T05:29:38.425Z,54.30
2018-11-12T05:32:08.103Z,59.63
2018-11-12T05:34:37.883Z,53.37
2018-11-12T05:37:08.038Z,49.67
2018-11-12T05:39:40.443Z,41.80
2018-11-12T05:42:10.118Z,58.87
2018-11-12T05:45:03.968Z,63.80
2018-11-12T05:47:33.586Z,31.77
2018-11-12T05:50:19.805Z,38.57
2018-11-12T05:52:52.977Z,69.87
2018-11-12T05:55:24.162Z,53.57
2018-11-12T05:57:53.862Z,43.67
2018-11-12T06:00:25.361Z,45.03
2018-11-12T06:02:55.114Z,48.93
2018-11-12T06:05:32.193Z,44.03
2018-11-12T06:08:01.869Z,52.57
2018-11-12T06:10:32.739Z,39.40
2018-11-12T06:13:02.461Z,39.73
2018-11-12T06:15:32.144Z,28.67
2018-11-12T06:18:01.871Z,38.00
2018-11-12T06:20:32.705Z,42.23
2018-11-12T06:23:02.326Z,46.63
2018-11-12T06:25:48.815Z,30.47
2018-11-12T06:28:18.519Z,35.80
2018-11-12T06:30:48.302Z,36.70
2018-11-12T06:33:17.912Z,44.00
2018-11-12T06:35:53.427Z,36.63
2018-11-12T06:38:23.127Z,52.07
2018-11-12T06:40:52.896Z,27.37
2018-11-12T06:43:23.307Z,38.50
2018-11-12T06:45:53.011Z,40.53
2018-11-12T06:48:22.679Z,34.20
2018-11-12T06:50:52.336Z,47.63
2018-11-12T06:53:21.969Z,31.17
2018-11-12T06:55:51.603Z,32.90
2018-11-12T06:58:21.378Z,43.57
2018-11-12T07:00:51.160Z,22.80
2018-11-12T07:03:20.869Z,31.07
2018-11-12T07:05:50.984Z,27.60
2018-11-12T07:08:21.058Z,39.40
2018-11-12T07:10:50.800Z,42.23
2018-11-12T07:13:48.869Z,42.03
2018-11-12T07:16:18.634Z,35.83
2018-11-12T07:18:48.283Z,25.30
2018-11-12T07:21:18.030Z,18.07
2018-11-12T07:23:47.611Z,31.87
2018-11-12T07:26:17.311Z,18.90
2018-11-12T07:28:46.999Z,25.80
2018-11-12T07:31:16.733Z,26.60
2018-11-12T07:33:46.412Z,22.13
2018-11-12T07:36:39.111Z,21.40
2018-11-12T07:39:10.986Z,22.80
2018-11-12T07:41:40.723Z,20.37
2018-11-12T07:44:10.458Z,21.43
2018-11-12T07:46:40.139Z,22.00
2018-11-12T07:49:09.831Z,14.57
2018-11-12T07:51:39.514Z,16.60
2018-11-12T07:54:09.240Z,16.90
2018-11-12T07:56:38.917Z,14.33
2018-11-12T07:59:08.643Z,16.60
2018-11-12T08:01:38.359Z,20.00
2018-11-12T08:04:08.221Z,21.20
2018-11-12T08:06:38.411Z,19.43
2018-11-12T08:09:10.849Z,18.30
2018-11-12T08:11:40.894Z,21.07
2018-11-12T08:14:10.728Z,22.30
2018-11-12T08:16:40.315Z,12.43
2018-11-12T08:19:10.321Z,22.10
2018-11-12T08:21:40.007Z,17.27
2018-11-12T08:24:09.696Z,23.63
2018-11-12T08:26:39.406Z,17.40
2018-11-12T08:29:09.117Z,13.57
2018-11-12T08:31:38.810Z,17.23
2018-11-12T08:34:08.557Z,16.33
2018-11-12T08:36:38.370Z,14.37
2018-11-12T08:39:08.738Z,13.83
2018-11-12T08:41:38.415Z,13.77
2018-11-12T08:44:08.294Z,13.93
2018-11-12T08:46:38.010Z,14.23
2018-11-12T08:49:08.114Z,12.73
2018-11-12T08:51:37.775Z,14.33
2018-11-12T08:54:07.934Z,18.80
2018-11-12T08:56:37.639Z,14.80
2018-11-12T08:59:07.451Z,16.93
2018-11-12T09:01:37.161Z,13.47
2018-11-12T09:04:06.947Z,11.13
2018-11-12T09:06:37.232Z,9.17
2018-11-12T09:09:11.771Z,9.57
2018-11-12T09:11:42.017Z,11.50
2018-11-12T09:14:11.703Z,13.07
2018-11-12T09:16:51.034Z,12.03
2018-11-12T09:19:20.851Z,11.80
2018-11-12T09:21:50.558Z,13.77
2018-11-12T09:24:20.346Z,11.27
2018-11-12T09:26:49.827Z,10.40
2018-11-12T09:29:19.583Z,9.30
2018-11-12T09:31:49.231Z,9.60
2018-11-12T09:34:19.351Z,9.43
2018-11-12T09:36:49.180Z,9.93
2018-11-12T09:39:18.745Z,9.27
2018-11-12T09:41:48.454Z,9.10
2018-11-12T09:44:18.167Z,9.47
2018-11-12T09:46:47.855Z,9.13
2018-11-12T09:49:17.573Z,8.93
2018-11-12T09:51:47.317Z,10.00
2018-11-12T09:54:17.154Z,9.17
2018-11-12T09:56:46.630Z,10.10
2018-11-12T09:59:16.254Z,9.87
2018-11-12T10:01:46.529Z,10.80
2018-11-12T10:04:15.927Z,10.30
2018-11-12T10:06:47.267Z,10.43
2018-11-12T10:09:17.647Z,11.00
2018-11-12T10:11:47.156Z,10.57
2018-11-12T10:14:17.630Z,10.33
2018-11-12T10:16:47.264Z,9.07
2018-11-12T10:19:14.611Z,12.60
2018-11-12T10:21:44.356Z,11.20
2018-11-12T10:24:14.030Z,13.67
2018-11-12T10:26:43.642Z,9.30
2018-11-12T10:29:13.375Z,11.93
2018-11-12T10:31:49.043Z,12.77
2018-11-12T10:34:18.650Z,9.07
2018-11-12T10:36:48.317Z,10.37
2018-11-12T10:39:18.023Z,9.57
2018-11-12T10:41:47.768Z,12.10
2018-11-12T10:44:17.435Z,10.50
2018-11-12T10:46:47.215Z,10.33
2018-11-12T10:49:16.863Z,10.90
2018-11-12T10:51:47.015Z,11.67
2018-11-12T10:54:16.848Z,11.63
2018-11-12T10:56:46.406Z,10.90
2018-11-12T10:59:16.219Z,12.20
2018-11-12T11:01:51.210Z,13.50
2018-11-12T11:04:22.563Z,11.20
2018-11-12T11:06:52.274Z,12.23
2018-11-12T11:09:21.932Z,10.77
2018-11-12T11:11:51.630Z,10.03
2018-11-12T11:14:21.360Z,10.10
2018-11-12T11:16:51.091Z,8.97
2018-11-12T11:19:20.728Z,10.10
2018-11-12T11:21:50.848Z,8.27
2018-11-12T11:24:21.186Z,9.23
2018-11-12T11:26:51.163Z,9.63
2018-11-12T11:29:20.962Z,9.77
2018-11-12T11:31:50.831Z,9.57
2018-11-12T11:34:20.901Z,9.40
2018-11-12T11:36:50.667Z,8.70
2018-11-12T11:39:20.438Z,8.37
2018-11-12T11:41:50.181Z,11.10
2018-11-12T11:44:19.866Z,7.87
2018-11-12T11:46:49.489Z,8.20
2018-11-12T11:49:19.496Z,8.13
2018-11-12T11:52:19.960Z,8.10
2018-11-12T11:54:49.830Z,8.13
2018-11-12T11:57:21.509Z,6.30
2018-11-12T11:59:51.103Z,6.77
2018-11-12T12:02:20.969Z,7.60
2018-11-12T12:04:51.192Z,6.80
2018-11-12T12:07:21.085Z,7.47
2018-11-12T12:09:50.736Z,6.63
2018-11-12T12:12:20.505Z,7.57
2018-11-12T12:14:50.302Z,9.17
2018-11-12T12:17:19.967Z,6.17
2018-11-12T12:19:51.729Z,6.73
2018-11-12T12:22:21.497Z,6.50
2018-11-12T12:24:51.190Z,6.23
2018-11-12T12:27:21.000Z,8.33
2018-11-12T12:29:50.706Z,8.00
2018-11-12T12:32:20.534Z,7.20
2018-11-12T12:34:50.941Z,6.73
2018-11-12T12:37:20.579Z,8.50
2018-11-12T12:39:50.950Z,7.50
2018-11-12T12:42:20.724Z,11.73
2018-11-12T12:44:50.543Z,8.57
2018-11-12T12:47:20.158Z,9.13
2018-11-12T12:49:49.823Z,10.10
2018-11-12T12:52:19.610Z,9.97
2018-11-12T12:54:49.254Z,9.20
2018-11-12T12:57:18.870Z,10.57
2018-11-12T12:59:49.295Z,8.30
2018-11-12T13:02:19.045Z,8.47
2018-11-12T13:04:48.851Z,9.47
2018-11-12T13:07:18.514Z,8.17
2018-11-12T13:09:48.398Z,8.47
2018-11-12T13:12:18.465Z,8.17
2018-11-12T13:14:48.392Z,9.97
2018-11-12T13:17:18.178Z,9.37
2018-11-12T13:19:47.872Z,8.07
2018-11-12T13:22:17.502Z,7.80
2018-11-12T13:24:47.234Z,6.93
2018-11-12T13:27:17.215Z,9.40
2018-11-12T13:30:06.380Z,7.40
2018-11-12T13:32:36.055Z,11.30
2018-11-12T13:35:06.761Z,8.37
2018-11-12T13:37:36.674Z,9.30
2018-11-12T13:40:10.360Z,14.53
2018-11-12T13:42:40.522Z,10.97
2018-11-12T13:45:10.847Z,9.97
2018-11-12T13:47:40.860Z,10.40
2018-11-12T13:50:20.474Z,9.17
2018-11-12T13:52:51.434Z,11.20
2018-11-12T13:55:22.244Z,9.83
2018-11-12T13:57:52.229Z,9.70
2018-11-12T14:00:24.591Z,7.33
2018-11-12T14:02:54.894Z,8.27
2018-11-12T14:05:25.366Z,8.13
2018-11-12T14:07:55.211Z,8.30
2018-11-12T14:10:26.525Z,8.90
2018-11-12T14:12:57.197Z,9.23
2018-11-12T14:15:27.398Z,9.53
2018-11-12T14:17:58.028Z,8.73
2018-11-12T14:20:28.081Z,8.97
2018-11-12T14:22:57.696Z,10.00
2018-11-12T14:25:27.741Z,9.50
2018-11-12T14:27:58.502Z,7.77
2018-11-12T14:30:29.819Z,8.23
2018-11-12T14:33:00.921Z,8.97
2018-11-12T14:35:30.848Z,7.93
2018-11-12T14:38:00.579Z,8.93
2018-11-12T14:40:40.671Z,7.47
2018-11-12T14:43:10.362Z,7.77
2018-11-12T14:45:40.233Z,8.70
2018-11-12T14:48:10.032Z,7.43
2018-11-12T14:50:42.058Z,8.93
2018-11-12T14:53:11.991Z,9.20
2018-11-12T14:55:41.798Z,8.50
2018-11-12T14:58:11.811Z,8.10
2018-11-12T15:00:41.526Z,8.10
2018-11-12T15:03:27.529Z,7.33
2018-11-12T15:05:57.228Z,9.10
2018-11-12T15:08:27.034Z,8.40
2018-11-12T15:10:57.451Z,8.77
2018-11-12T15:13:27.214Z,10.50
2018-11-12T15:16:03.371Z,9.47
2018-11-12T15:18:33.106Z,9.83
2018-11-12T15:21:02.896Z,12.10
2018-11-12T15:23:43.186Z,12.40
2018-11-12T15:26:12.916Z,12.57
2018-11-12T15:28:42.618Z,11.30
2018-11-12T15:31:18.003Z,12.90
2018-11-12T15:33:48.902Z,17.13
2018-11-12T15:36:18.915Z,10.43
2018-11-12T15:38:49.179Z,11.37
2018-11-12T15:41:18.901Z,12.93
2018-11-12T15:43:48.568Z,11.63
2018-11-12T15:46:25.427Z,12.03
2018-11-12T15:48:56.302Z,17.93
2018-11-12T15:51:26.008Z,16.00
2018-11-12T15:53:55.892Z,14.20
2018-11-12T15:56:25.925Z,12.40
2018-11-12T15:58:56.095Z,13.87
2018-11-12T16:01:26.158Z,14.57
2018-11-12T16:03:56.505Z,13.23
2018-11-12T16:06:25.848Z,12.33
2018-11-12T16:09:01.148Z,13.10
2018-11-12T16:11:31.502Z,15.40
2018-11-12T16:14:00.834Z,14.73
2018-11-12T16:16:32.328Z,13.43
2018-11-12T16:19:01.868Z,17.93
2018-11-12T16:21:31.167Z,18.67
2018-11-12T16:24:00.481Z,13.27
2018-11-12T16:26:29.885Z,12.40
2018-11-12T16:29:00.099Z,12.33
2018-11-12T16:31:29.673Z,11.60
2018-11-12T16:33:58.985Z,8.37
2018-11-12T16:36:28.570Z,10.10
2018-11-12T16:38:57.917Z,10.90
2018-11-12T16:41:27.571Z,8.70
2018-11-12T16:43:57.101Z,15.10
2018-11-12T16:46:26.486Z,9.67
2018-11-12T16:48:55.800Z,8.63
2018-11-12T16:51:25.131Z,9.33
2018-11-12T16:53:54.481Z,10.23
2018-11-12T16:56:34.043Z,7.67
2018-11-12T16:59:04.075Z,8.13
2018-11-12T17:01:34.376Z,8.67
2018-11-12T17:04:04.107Z,8.17
2018-11-12T17:06:34.258Z,5.40
2018-11-12T17:09:05.093Z,8.10
2018-11-12T17:11:34.713Z,7.40
2018-11-12T17:14:04.450Z,7.77
2018-11-12T17:16:34.199Z,8.87
2018-11-12T17:19:03.951Z,12.47
2018-11-12T17:24:40.434Z,12.03
2018-11-12T17:27:10.191Z,10.73
2018-11-12T17:29:39.820Z,7.83
2018-11-12T17:35:18.934Z,22.57
2018-11-12T17:37:49.022Z,13.20
2018-11-12T17:40:23.945Z,8.57
2018-11-12T17:42:55.208Z,14.43
2018-11-12T17:45:26.339Z,16.50
2018-11-12T17:47:57.268Z,8.27
2018-11-12T17:50:27.329Z,7.83
2018-11-12T17:52:57.156Z,8.07
2018-11-12T17:55:26.826Z,23.80
2018-11-12T17:57:56.514Z,14.23
2018-11-12T18:00:27.915Z,14.93
2018-11-12T18:02:57.564Z,15.27
2018-11-12T18:05:27.418Z,10.87
2018-11-12T18:07:57.262Z,10.70
2018-11-12T18:10:26.907Z,17.20
2018-11-12T18:12:56.579Z,8.40
2018-11-12T18:15:26.371Z,8.90
2018-11-12T18:18:02.425Z,8.80
2018-11-12T18:20:32.047Z,9.43
2018-11-12T18:23:08.144Z,23.27
2018-11-12T18:25:37.835Z,23.50
2018-11-12T18:28:07.753Z,17.63
2018-11-12T18:30:38.073Z,10.47
2018-11-12T18:33:08.547Z,10.50
2018-11-12T18:35:44.230Z,11.50
2018-11-12T18:38:13.992Z,13.07
2018-11-12T18:40:43.644Z,9.07
2018-11-12T18:43:13.261Z,8.40
2018-11-12T18:45:42.935Z,14.43
2018-11-12T18:48:12.639Z,13.07
2018-11-12T18:50:42.344Z,14.47
2018-11-12T18:53:12.257Z,13.87
2018-11-12T18:55:41.925Z,10.87
2018-11-12T18:58:11.633Z,10.60
2018-11-12T19:00:41.315Z,10.40
2018-11-12T19:03:11.343Z,15.17
2018-11-12T19:05:40.945Z,13.93
2018-11-12T19:08:12.689Z,11.20
2018-11-12T19:10:42.437Z,7.60
2018-11-12T19:13:12.126Z,21.43
2018-11-12T19:15:41.790Z,38.40
2018-11-12T19:18:14.986Z,22.93
2018-11-12T19:20:49.947Z,16.47
2018-11-12T19:23:19.602Z,12.03
2018-11-12T19:25:49.311Z,10.47
2018-11-12T19:28:18.978Z,8.53
2018-11-12T19:30:50.824Z,9.17
2018-11-12T19:33:21.842Z,9.47
2018-11-12T19:36:13.758Z,8.70
2018-11-12T19:38:43.449Z,13.07
2018-11-12T19:41:13.182Z,16.03
2018-11-12T19:43:43.338Z,10.40
2018-11-12T19:46:13.242Z,13.77
2018-11-12T19:48:43.086Z,18.23
2018-11-12T19:51:20.208Z,11.00
2018-11-12T19:53:50.494Z,14.23
2018-11-12T19:56:20.813Z,8.47
2018-11-12T19:58:52.311Z,14.10
2018-11-12T20:01:24.044Z,19.83
2018-11-12T20:03:54.118Z,30.43
2018-11-12T20:06:24.417Z,35.40
2018-11-12T20:09:02.458Z,35.87
2018-11-12T20:11:38.806Z,18.77
2018-11-12T20:14:12.574Z,14.90
2018-11-12T20:16:43.223Z,16.90
2018-11-12T20:19:24.656Z,15.83
2018-11-12T20:22:15.391Z,12.10
2018-11-12T20:24:45.089Z,11.33
2018-11-12T20:27:14.812Z,10.13
2018-11-12T20:29:44.590Z,9.10
2018-11-12T20:32:31.548Z,10.57
2018-11-12T20:35:01.443Z,10.77
2018-11-12T20:40:35.054Z,13.50
2018-11-12T20:43:25.643Z,10.43
2018-11-12T20:45:55.444Z,9.73
2018-11-12T20:48:25.211Z,8.87
2018-11-12T20:50:54.936Z,9.47
2018-11-12T20:53:24.563Z,10.03
2018-11-12T20:56:06.659Z,12.63
2018-11-12T20:58:37.178Z,17.47
2018-11-12T21:01:06.975Z,30.77
2018-11-12T21:06:53.316Z,123.80
2018-11-12T21:09:22.986Z,82.37
2018-11-12T21:11:52.688Z,52.53
2018-11-12T21:14:22.491Z,33.93
2018-11-12T21:16:52.315Z,31.57
2018-11-12T21:19:22.388Z,30.40
2018-11-12T21:21:52.319Z,25.20
2018-11-12T21:24:28.279Z,25.90
2018-11-12T21:26:58.848Z,21.43
2018-11-12T21:29:28.644Z,13.53
2018-11-12T21:31:58.467Z,13.67
2018-11-12T21:34:28.250Z,16.90
2018-11-12T21:36:58.074Z,12.17
2018-11-12T21:39:27.732Z,15.37
2018-11-12T21:42:00.559Z,16.13
2018-11-12T21:44:30.891Z,21.97
2018-11-12T21:47:00.632Z,14.00
2018-11-12T21:49:30.442Z,12.57
2018-11-12T21:52:00.322Z,11.10
2018-11-12T21:54:30.657Z,15.23
2018-11-12T21:57:00.576Z,12.73
2018-11-12T21:59:34.814Z,16.57
2018-11-12T22:02:04.685Z,23.60
2018-11-12T22:04:35.775Z,17.97
2018-11-12T22:07:24.374Z,20.20
2018-11-12T22:09:54.185Z,18.00
2018-11-12T22:12:23.849Z,26.60
2018-11-12T22:14:54.265Z,29.17
2018-11-12T22:17:23.954Z,36.33
2018-11-12T22:19:57.020Z,35.27
2018-11-12T22:22:26.793Z,37.33
2018-11-12T22:24:56.522Z,30.70
2018-11-12T22:27:56.520Z,30.97
2018-11-12T22:30:27.662Z,30.60
2018-11-12T22:32:58.384Z,63.30
2018-11-12T22:35:28.344Z,31.80
2018-11-12T22:38:00.226Z,30.57
2018-11-12T22:40:29.942Z,32.80
2018-11-12T22:42:59.606Z,30.27
2018-11-12T22:45:29.354Z,33.73
2018-11-12T22:47:59.102Z,37.40
2018-11-12T22:50:29.910Z,59.27
2018-11-12T22:52:59.591Z,97.20
2018-11-12T22:55:30.715Z,149.57
2018-11-12T22:58:08.043Z,79.77
2018-11-12T23:00:46.780Z,90.53
2018-11-12T23:03:22.102Z,98.63
2018-11-12T23:06:01.657Z,92.60
2018-11-12T23:08:32.564Z,73.17
2018-11-12T23:11:02.728Z,92.37
2018-11-12T23:13:33.067Z,62.03
2018-11-12T23:16:02.822Z,55.87
2018-11-12T23:18:32.746Z,74.90
2018-11-12T23:21:18.638Z,79.17
2018-11-12T23:23:48.347Z,49.50
2018-11-12T23:26:17.988Z,44.17
2018-11-12T23:28:53.055Z,58.50
2018-11-12T23:31:23.511Z,93.33
2018-11-12T23:34:00.768Z,41.17
2018-11-12T23:36:30.764Z,48.70
2018-11-12T23:39:00.509Z,51.40
2018-11-12T23:41:37.131Z,56.67
2018-11-12T23:44:10.422Z,45.93
2018-11-12T23:46:40.148Z,60.90
2018-11-12T23:49:10.355Z,57.77
2018-11-12T23:51:39.998Z,41.90
2018-11-12T23:54:09.854Z,42.53
2018-11-12T23:56:39.696Z,54.83
2018-11-12T23:59:09.571Z,45.80
